Richmond, Utah
Current Conditions -  °F | °C
As of 8:51 PM on Friday 24 Oct 2014 (Local Time) from KLGU Reporting Station
Clear Clear  
Wind Chill: 53°   Ceiling: Unl
Heat Index: 53°   Visibility: 10mi
Dew Point: 36°   Wind: 7mph
Humidity: 52%   Direction: 230°SW
Pressure: 30.11"   Gusts: NA
Location:  41.92°N, 111.81°W
Report Text: KLGU 250251Z AUTO 23006KT 10SM CLR 12/02 A3011 RMK AO2 SLP185 T01170022 53003 TSNO
Loading
Personal Weather Stations






























Interactive Weather Map
Tropical Storm Tracking
New forecast layout! Learn more

10-Day Weather Forecast

Advertisements
Track Severe Weather on mobile